createdAt,value
2023-02-18T00:01:24.660Z,101192.25
2023-02-18T00:03:51.884Z,101191.50
2023-02-18T00:06:31.353Z,101200.13
2023-02-18T00:09:01.802Z,101188.09
2023-02-18T00:11:30.049Z,101205.00
2023-02-18T00:13:59.051Z,101197.97
2023-02-18T00:16:26.763Z,101208.38
2023-02-18T00:19:01.622Z,101199.47
2023-02-18T00:21:28.418Z,101198.88
2023-02-18T00:23:55.601Z,101220.31
2023-02-18T00:26:22.271Z,101210.28
2023-02-18T00:28:49.847Z,101218.34
2023-02-18T00:31:20.426Z,101221.28
2023-02-18T00:33:47.114Z,101210.50
2023-02-18T00:36:18.842Z,101222.97
2023-02-18T00:38:47.124Z,101224.66
2023-02-18T00:41:14.485Z,101232.66
2023-02-18T00:43:41.172Z,101223.09
2023-02-18T00:46:08.393Z,101231.13
2023-02-18T00:48:35.725Z,101235.56
2023-02-18T00:51:03.923Z,101229.25
2023-02-18T00:53:31.138Z,101231.78
2023-02-18T00:55:58.132Z,101242.41
2023-02-18T00:58:25.215Z,101238.03
2023-02-18T01:00:51.899Z,101247.97
2023-02-18T01:03:18.688Z,101243.50
2023-02-18T01:05:45.657Z,101231.78
2023-02-18T01:08:12.711Z,101235.31
2023-02-18T01:10:45.024Z,101237.28
2023-02-18T01:13:12.944Z,101226.56
2023-02-18T01:15:40.427Z,101241.56
2023-02-18T01:18:07.958Z,101240.69
2023-02-18T01:20:36.287Z,101247.03
2023-02-18T01:23:03.518Z,101238.31
2023-02-18T01:25:30.267Z,101238.44
2023-02-18T01:27:57.025Z,101238.22
2023-02-18T01:30:24.123Z,101234.88
2023-02-18T01:32:51.294Z,101227.88
2023-02-18T01:35:19.568Z,101229.50
2023-02-18T01:37:47.438Z,101225.03
2023-02-18T01:40:16.160Z,101229.41
2023-02-18T01:42:43.250Z,101221.44
2023-02-18T01:45:29.337Z,101232.31
2023-02-18T01:47:56.309Z,101232.28
2023-02-18T01:50:22.929Z,101238.84
2023-02-18T01:52:49.580Z,101250.25
2023-02-18T01:55:16.336Z,101234.81
2023-02-18T01:57:43.379Z,101234.09
2023-02-18T02:00:14.669Z,101242.66
2023-02-18T02:02:47.668Z,101234.16
2023-02-18T02:05:14.828Z,101228.72
2023-02-18T02:07:42.733Z,101237.75
2023-02-18T02:10:10.883Z,101241.09
2023-02-18T02:12:49.685Z,101250.63
2023-02-18T02:15:42.575Z,101241.03
2023-02-18T02:18:27.460Z,101242.78
2023-02-18T02:21:06.341Z,101238.47
2023-02-18T02:24:13.004Z,101243.69
2023-02-18T02:27:11.976Z,101247.44
2023-02-18T02:30:08.460Z,101237.63
2023-02-18T02:32:57.202Z,101244.94
2023-02-18T02:35:25.506Z,101232.75
2023-02-18T02:38:19.543Z,101240.84
2023-02-18T02:41:00.087Z,101243.06
2023-02-18T02:43:52.119Z,101239.56
2023-02-18T02:46:23.789Z,101247.53
2023-02-18T02:49:05.444Z,101250.78
2023-02-18T02:51:47.222Z,101240.19
2023-02-18T02:54:19.886Z,101257.19
2023-02-18T02:56:46.949Z,101237.03
2023-02-18T02:59:24.053Z,101237.00
2023-02-18T03:01:57.243Z,101241.38
2023-02-18T03:04:49.305Z,101238.84
2023-02-18T03:07:36.796Z,101246.00
2023-02-18T03:10:08.435Z,101225.44
2023-02-18T03:12:47.535Z,101236.75
2023-02-18T03:15:40.455Z,101238.28
2023-02-18T03:18:15.267Z,101233.56
2023-02-18T03:20:55.456Z,101231.75
2023-02-18T03:23:26.270Z,101244.06
2023-02-18T03:25:53.481Z,101242.50
2023-02-18T03:28:21.754Z,101246.59
2023-02-18T03:30:53.330Z,101257.53
2023-02-18T03:33:29.815Z,101244.09
2023-02-18T03:35:57.873Z,101248.38
2023-02-18T03:38:29.229Z,101252.09
2023-02-18T03:40:57.525Z,101245.94
2023-02-18T03:43:24.481Z,101251.56
2023-02-18T03:45:51.421Z,101261.13
2023-02-18T03:48:18.985Z,101260.94
2023-02-18T03:50:45.679Z,101265.13
2023-02-18T03:53:12.583Z,101265.22
2023-02-18T03:55:39.281Z,101260.84
2023-02-18T03:58:05.923Z,101261.63
2023-02-18T04:00:32.616Z,101260.69
2023-02-18T04:02:59.258Z,101256.19
2023-02-18T04:05:29.082Z,101258.09
2023-02-18T04:07:55.731Z,101248.44
2023-02-18T04:10:23.056Z,101255.38
2023-02-18T04:12:49.888Z,101249.22
2023-02-18T04:15:16.572Z,101258.03
2023-02-18T04:17:43.431Z,101254.50
2023-02-18T04:20:10.529Z,101261.47
2023-02-18T04:22:37.162Z,101242.97
2023-02-18T04:25:03.879Z,101252.81
2023-02-18T04:27:30.548Z,101249.38
2023-02-18T04:30:07.305Z,101248.28
2023-02-18T04:32:34.040Z,101249.22
2023-02-18T04:35:00.755Z,101244.03
2023-02-18T04:37:27.403Z,101253.03
2023-02-18T04:39:54.097Z,101257.19
2023-02-18T04:42:20.885Z,101254.59
2023-02-18T04:44:47.768Z,101255.63
2023-02-18T04:47:14.786Z,101252.88
2023-02-18T04:49:41.480Z,101258.19
2023-02-18T04:52:08.152Z,101257.19
2023-02-18T04:54:34.890Z,101257.91
2023-02-18T04:57:01.535Z,101256.34
2023-02-18T04:59:28.221Z,101251.81
2023-02-18T05:01:54.917Z,101262.19
2023-02-18T05:04:21.910Z,101262.94
2023-02-18T05:06:48.631Z,101260.41
2023-02-18T05:09:15.385Z,101261.31
2023-02-18T05:11:45.175Z,101253.34
2023-02-18T05:14:11.886Z,101260.19
2023-02-18T05:16:38.538Z,101259.38
2023-02-18T05:19:05.385Z,101261.13
2023-02-18T05:21:32.072Z,101256.09
2023-02-18T05:23:58.966Z,101253.53
2023-02-18T05:26:25.647Z,101252.75
2023-02-18T05:28:52.357Z,101259.59
2023-02-18T05:31:19.043Z,101257.63
2023-02-18T05:33:45.760Z,101255.84
2023-02-18T05:36:12.388Z,101245.03
2023-02-18T05:38:39.108Z,101241.47
2023-02-18T05:41:05.835Z,101238.88
2023-02-18T05:43:52.469Z,101244.03
2023-02-18T05:46:19.164Z,101234.44
2023-02-18T05:48:45.807Z,101235.31
2023-02-18T05:51:12.463Z,101239.53
2023-02-18T05:53:39.117Z,101232.47
2023-02-18T05:56:06.323Z,101235.28
2023-02-18T05:58:33.216Z,101238.63
2023-02-18T06:00:59.847Z,101242.03
2023-02-18T06:03:26.489Z,101237.84
2023-02-18T06:05:53.281Z,101239.53
2023-02-18T06:08:22.791Z,101240.28
2023-02-18T06:10:49.479Z,101234.16
2023-02-18T06:13:16.184Z,101236.78
2023-02-18T06:15:42.990Z,101239.38
2023-02-18T06:18:09.801Z,101229.59
2023-02-18T06:20:36.442Z,101230.44
2023-02-18T06:23:03.044Z,101233.13
2023-02-18T06:25:29.929Z,101226.03
2023-02-18T06:27:56.561Z,101226.00
2023-02-18T06:30:24.572Z,101242.03
2023-02-18T06:32:51.317Z,101224.41
2023-02-18T06:35:18.045Z,101235.00
2023-02-18T06:37:45.933Z,101235.00
2023-02-18T06:40:12.796Z,101230.78
2023-02-18T06:42:39.435Z,101238.53
2023-02-18T06:45:06.900Z,101236.06
2023-02-18T06:47:34.459Z,101234.03
2023-02-18T06:50:01.121Z,101226.00
2023-02-18T06:52:27.836Z,101225.34
2023-02-18T06:54:54.621Z,101226.38
2023-02-18T06:57:21.473Z,101219.06
2023-02-18T06:59:48.064Z,101227.81
2023-02-18T07:02:14.736Z,101230.38
2023-02-18T07:04:41.376Z,101221.56
2023-02-18T07:07:08.073Z,101228.38
2023-02-18T07:09:34.654Z,101223.25
2023-02-18T07:12:01.281Z,101218.25
2023-02-18T07:14:28.615Z,101222.50
2023-02-18T07:16:55.247Z,101216.19
2023-02-18T07:19:21.963Z,101223.06
2023-02-18T07:21:48.638Z,101231.34
2023-02-18T07:24:15.260Z,101234.09
2023-02-18T07:26:41.962Z,101226.00
2023-02-18T07:29:08.599Z,101229.59
2023-02-18T07:31:35.327Z,101227.81
2023-02-18T07:34:01.976Z,101219.09
2023-02-18T07:36:31.776Z,101228.72
2023-02-18T07:38:58.386Z,101212.66
2023-02-18T07:41:25.820Z,101216.34
2023-02-18T07:43:52.452Z,101200.41
2023-02-18T07:46:19.193Z,101205.00
2023-02-18T07:48:45.947Z,101193.22
2023-02-18T07:51:13.512Z,101188.97
2023-02-18T07:53:40.397Z,101192.72
2023-02-18T07:56:07.496Z,101175.88
2023-02-18T07:58:36.567Z,101181.91
2023-02-18T08:01:12.049Z,101183.53
2023-02-18T08:03:39.674Z,101174.63
2023-02-18T08:06:07.005Z,101176.41
2023-02-18T08:08:36.601Z,101171.13
2023-02-18T08:11:13.331Z,101165.88
2023-02-18T08:13:47.006Z,101168.00
2023-02-18T08:16:13.937Z,101151.88
2023-02-18T08:18:40.599Z,101144.03
2023-02-18T08:21:07.256Z,101152.72
2023-02-18T08:23:33.940Z,101148.00
2023-02-18T08:26:00.601Z,101137.28
2023-02-18T08:28:27.538Z,101137.22
2023-02-18T08:30:54.760Z,101134.50
2023-02-18T08:33:22.341Z,101126.41
2023-02-18T08:35:50.647Z,101115.66
2023-02-18T08:38:17.494Z,101113.09
2023-02-18T08:40:44.476Z,101105.88
2023-02-18T08:43:11.151Z,101103.19
2023-02-18T08:45:38.720Z,101105.03
2023-02-18T08:48:17.250Z,101096.81
2023-02-18T08:50:47.184Z,101097.59
2023-02-18T08:53:13.811Z,101094.97
2023-02-18T08:55:41.032Z,101079.25
2023-02-18T08:58:08.041Z,101091.78
2023-02-18T09:00:35.154Z,101089.09
2023-02-18T09:03:01.883Z,101079.19
2023-02-18T09:05:28.540Z,101080.94
2023-02-18T09:07:55.322Z,101078.19
2023-02-18T09:10:22.203Z,101064.50
2023-02-18T09:12:48.855Z,101053.00
2023-02-18T09:15:15.825Z,101052.91
2023-02-18T09:17:42.437Z,101055.63
2023-02-18T09:20:09.564Z,101041.56
2023-02-18T09:22:36.161Z,101050.25
2023-02-18T09:25:03.756Z,101042.94
2023-02-18T09:27:30.423Z,101030.53
2023-02-18T09:29:57.126Z,101028.88
2023-02-18T09:32:34.286Z,101035.22
2023-02-18T09:35:02.926Z,101014.75
2023-02-18T09:37:29.742Z,101013.91
2023-02-18T09:39:56.452Z,101008.28
2023-02-18T09:42:31.151Z,101014.75
2023-02-18T09:45:01.111Z,100994.34
2023-02-18T09:47:30.800Z,100991.59
2023-02-18T09:50:01.472Z,100983.41
2023-02-18T09:52:30.995Z,100973.72
2023-02-18T09:54:57.950Z,100962.13
2023-02-18T09:57:33.935Z,100971.75
2023-02-18T10:00:07.710Z,100950.66
2023-02-18T10:02:42.201Z,100957.63
2023-02-18T10:05:14.241Z,100949.38
2023-02-18T10:07:41.319Z,100947.94
2023-02-18T10:10:33.542Z,100944.50
2023-02-18T10:13:00.785Z,100944.72
2023-02-18T10:15:29.755Z,100941.91
2023-02-18T10:17:57.480Z,100940.16
2023-02-18T10:20:28.144Z,100921.59
2023-02-18T10:22:55.907Z,100922.25
2023-02-18T10:25:23.679Z,100904.41
2023-02-18T10:27:52.334Z,100895.41
2023-02-18T10:30:33.540Z,100889.09
2023-02-18T10:33:30.686Z,100885.75
2023-02-18T10:36:12.758Z,100877.94
2023-02-18T10:38:57.788Z,100864.84
2023-02-18T10:41:53.014Z,100849.47
2023-02-18T10:44:38.137Z,100844.91
2023-02-18T10:47:22.843Z,100828.97
2023-02-18T10:49:59.271Z,100822.91
2023-02-18T10:52:30.459Z,100816.72
2023-02-18T10:55:06.571Z,100801.81
2023-02-18T10:57:33.769Z,100801.56
2023-02-18T11:00:00.392Z,100784.94
2023-02-18T11:02:31.606Z,100784.38
2023-02-18T11:05:05.132Z,100764.72
2023-02-18T11:07:34.419Z,100760.03
2023-02-18T11:10:09.810Z,100760.75
2023-02-18T11:12:46.732Z,100739.25
2023-02-18T11:15:23.647Z,100740.50
2023-02-18T11:17:52.624Z,100724.69
2023-02-18T11:20:30.433Z,100714.09
2023-02-18T11:22:59.125Z,100709.78
2023-02-18T11:25:29.359Z,100699.97
2023-02-18T11:27:57.872Z,100706.53
2023-02-18T11:30:27.900Z,100693.91
2023-02-18T11:32:58.251Z,100686.53
2023-02-18T11:35:27.830Z,100677.59
2023-02-18T11:37:57.259Z,100680.25
2023-02-18T11:40:35.053Z,100669.44
2023-02-18T11:43:13.706Z,100665.75
2023-02-18T11:45:40.801Z,100653.50
2023-02-18T11:48:15.655Z,100649.84
2023-02-18T11:50:42.537Z,100636.63
2023-02-18T11:53:35.204Z,100624.47
2023-02-18T11:56:05.792Z,100622.66
2023-02-18T11:58:40.051Z,100627.47
2023-02-18T12:01:14.213Z,100602.66
2023-02-18T12:03:40.806Z,100597.72
2023-02-18T12:06:16.143Z,100590.38
2023-02-18T12:08:54.726Z,100585.84
2023-02-18T12:11:32.908Z,100576.38
2023-02-18T12:13:59.747Z,100583.06
2023-02-18T12:17:03.542Z,100570.47
2023-02-18T12:19:51.626Z,100577.47
2023-02-18T12:22:45.413Z,100562.88
2023-02-18T12:25:26.491Z,100557.00
2023-02-18T12:28:10.807Z,100547.31
2023-02-18T12:31:05.208Z,100550.75
2023-02-18T12:33:56.076Z,100539.63
2023-02-18T12:36:28.787Z,100542.34
2023-02-18T12:39:14.272Z,100543.75
2023-02-18T12:42:17.316Z,100545.41
2023-02-18T12:44:58.071Z,100536.66
2023-02-18T12:47:31.862Z,100524.50
2023-02-18T12:50:18.777Z,100526.31
2023-02-18T12:53:14.975Z,100514.88
2023-02-18T12:56:06.829Z,100518.25
2023-02-18T12:58:39.522Z,100519.09
2023-02-18T13:01:31.091Z,100512.44
2023-02-18T13:04:15.937Z,100508.63
2023-02-18T13:06:53.065Z,100498.03
2023-02-18T13:10:02.395Z,100491.78
2023-02-18T13:12:29.098Z,100483.94
2023-02-18T13:15:05.774Z,100482.09
2023-02-18T13:17:37.779Z,100478.94
2023-02-18T13:20:27.815Z,100460.94
2023-02-18T13:22:55.055Z,100469.41
2023-02-18T13:25:22.209Z,100472.50
2023-02-18T13:28:18.959Z,100476.91
2023-02-18T13:30:55.487Z,100482.59
2023-02-18T13:33:29.161Z,100477.84
2023-02-18T13:36:11.038Z,100484.22
2023-02-18T13:38:52.961Z,100487.09
2023-02-18T13:41:21.400Z,100479.56
2023-02-18T13:43:48.711Z,100477.25
2023-02-18T13:46:19.120Z,100477.78
2023-02-18T13:49:13.421Z,100462.75
2023-02-18T13:51:48.783Z,100473.03
2023-02-18T13:54:25.440Z,100475.59
2023-02-18T13:56:54.989Z,100478.31
2023-02-18T13:59:50.011Z,100484.53
2023-02-18T14:02:20.693Z,100486.84
2023-02-18T14:05:16.174Z,100480.06
2023-02-18T14:07:50.489Z,100483.06
2023-02-18T14:10:17.039Z,100483.78
2023-02-18T14:12:51.675Z,100480.13
2023-02-18T14:15:18.597Z,100493.31
2023-02-18T14:18:09.876Z,100489.06
2023-02-18T14:20:39.500Z,100487.59
2023-02-18T14:23:18.357Z,100496.94
2023-02-18T14:26:16.164Z,100488.09
2023-02-18T14:28:48.944Z,100505.06
2023-02-18T14:31:15.912Z,100494.97
2023-02-18T14:34:01.299Z,100483.94
2023-02-18T14:36:37.128Z,100482.78
2023-02-18T14:39:41.132Z,100485.97
2023-02-18T14:42:31.654Z,100479.31
2023-02-18T14:45:11.935Z,100486.09
2023-02-18T14:47:58.118Z,100484.81
2023-02-18T14:50:25.036Z,100489.94
2023-02-18T14:52:58.093Z,100486.66
2023-02-18T14:55:30.919Z,100497.69
2023-02-18T14:58:07.749Z,100491.19
2023-02-18T15:00:39.433Z,100497.41
2023-02-18T15:03:13.780Z,100502.22
2023-02-18T15:05:40.498Z,100501.03
2023-02-18T15:08:16.184Z,100492.34
2023-02-18T15:10:56.511Z,100508.22
2023-02-18T15:13:31.534Z,100516.59
2023-02-18T15:16:02.291Z,100507.31
2023-02-18T15:18:37.135Z,100515.78
2023-02-18T15:21:05.682Z,100542.56
2023-02-18T15:23:38.766Z,100536.25
2023-02-18T15:26:06.875Z,100538.25
2023-02-18T15:28:34.477Z,100546.91
2023-02-18T15:31:03.425Z,100552.72
2023-02-18T15:33:30.428Z,100560.47
2023-02-18T15:36:06.005Z,100558.38
2023-02-18T15:38:32.872Z,100554.59
2023-02-18T15:41:00.086Z,100570.59
2023-02-18T15:43:27.512Z,100564.25
2023-02-18T15:45:58.041Z,100583.47
2023-02-18T15:48:42.993Z,100572.84
2023-02-18T15:51:17.619Z,100573.66
2023-02-18T15:53:47.417Z,100582.38
2023-02-18T15:56:38.180Z,100583.06
2023-02-18T15:59:18.547Z,100590.19
2023-02-18T16:01:53.467Z,100596.78
2023-02-18T16:04:22.147Z,100603.41
2023-02-18T16:06:53.737Z,100603.91
2023-02-18T16:09:27.204Z,100616.47
2023-02-18T16:12:02.336Z,100617.38
2023-02-18T16:14:34.003Z,100629.78
2023-02-18T16:17:12.987Z,100636.78
2023-02-18T16:20:02.836Z,100632.84
2023-02-18T16:22:30.762Z,100629.13
2023-02-18T16:25:02.024Z,100636.94
2023-02-18T16:27:33.643Z,100643.34
2023-02-18T16:30:03.684Z,100652.47
2023-02-18T16:32:30.335Z,100657.53
2023-02-18T16:34:57.439Z,100668.03
2023-02-18T16:37:39.108Z,100658.78
2023-02-18T16:40:21.881Z,100664.75
2023-02-18T16:42:48.563Z,100666.91
2023-02-18T16:45:15.763Z,100669.34
2023-02-18T16:47:43.600Z,100681.56
2023-02-18T16:50:21.660Z,100676.09
2023-02-18T16:52:49.371Z,100686.50
2023-02-18T16:55:19.079Z,100697.91
2023-02-18T16:57:48.258Z,100688.69
2023-02-18T17:00:17.496Z,100698.00
2023-02-18T17:02:46.617Z,100708.03
2023-02-18T17:05:26.896Z,100713.72
2023-02-18T17:07:54.961Z,100731.28
2023-02-18T17:10:21.729Z,100728.44
2023-02-18T17:12:48.826Z,100734.38
2023-02-18T17:15:23.953Z,100748.31
2023-02-18T17:17:50.779Z,100755.25
2023-02-18T17:20:18.110Z,100764.88
2023-02-18T17:22:44.791Z,100789.38
2023-02-18T17:25:17.931Z,100812.59
2023-02-18T17:27:46.409Z,100834.56
2023-02-18T17:30:14.626Z,100834.00
2023-02-18T17:32:42.315Z,100850.88
2023-02-18T17:35:17.895Z,100867.91
2023-02-18T17:37:44.615Z,100871.28
2023-02-18T17:40:20.772Z,100869.03
2023-02-18T17:42:47.775Z,100883.16
2023-02-18T17:45:19.473Z,100879.59
2023-02-18T17:47:46.551Z,100885.25
2023-02-18T17:50:13.692Z,100880.69
2023-02-18T17:52:40.527Z,100891.06
2023-02-18T17:55:17.332Z,100896.31
2023-02-18T17:57:45.175Z,100903.69
2023-02-18T18:00:14.827Z,100910.00
2023-02-18T18:02:41.517Z,100909.00
2023-02-18T18:05:16.080Z,100922.34
2023-02-18T18:07:42.900Z,100922.06
2023-02-18T18:10:09.843Z,100922.72
2023-02-18T18:12:36.667Z,100918.88
2023-02-18T18:15:13.153Z,100925.13
2023-02-18T18:17:39.919Z,100936.50
2023-02-18T18:20:07.446Z,100935.97
2023-02-18T18:22:34.130Z,100944.78
2023-02-18T18:25:00.910Z,100946.59
2023-02-18T18:27:27.637Z,100945.63
2023-02-18T18:29:54.316Z,100954.47
2023-02-18T18:32:22.972Z,100972.13
2023-02-18T18:34:50.048Z,100968.22
2023-02-18T18:37:16.710Z,100974.00
2023-02-18T18:39:43.356Z,100983.84
2023-02-18T18:42:12.374Z,100986.22
2023-02-18T18:44:39.006Z,100991.47
2023-02-18T18:47:05.763Z,100995.22
2023-02-18T18:49:32.407Z,101003.47
2023-02-18T18:51:59.457Z,101004.75
2023-02-18T18:54:26.114Z,101008.28
2023-02-18T18:56:53.548Z,101014.13
2023-02-18T18:59:20.466Z,101011.47
2023-02-18T19:01:47.270Z,101013.50
2023-02-18T19:04:14.626Z,101012.28
2023-02-18T19:06:41.493Z,101013.06
2023-02-18T19:09:10.641Z,101017.38
2023-02-18T19:11:37.700Z,101019.47
2023-02-18T19:14:04.314Z,101018.50
2023-02-18T19:16:39.899Z,101020.16
2023-02-18T19:19:06.750Z,101009.47
2023-02-18T19:21:33.652Z,101023.22
2023-02-18T19:24:00.489Z,101026.75
2023-02-18T19:26:28.089Z,101036.53
2023-02-18T19:28:55.103Z,101030.38
2023-02-18T19:31:24.493Z,101039.47
2023-02-18T19:33:51.757Z,101047.84
2023-02-18T19:36:18.807Z,101045.19
2023-02-18T19:38:46.218Z,101051.22
2023-02-18T19:41:15.531Z,101042.81
2023-02-18T19:43:44.234Z,101056.09
2023-02-18T19:46:15.358Z,101066.47
2023-02-18T19:48:42.498Z,101061.28
2023-02-18T19:51:12.517Z,101052.56
2023-02-18T19:53:39.478Z,101048.16
2023-02-18T19:56:07.524Z,101050.13
2023-02-18T19:58:35.504Z,101051.47
2023-02-18T20:01:02.390Z,101047.16
2023-02-18T20:03:29.616Z,101056.47
2023-02-18T20:05:56.295Z,101067.69
2023-02-18T20:08:22.958Z,101062.00
2023-02-18T20:10:57.809Z,101059.31
2023-02-18T20:13:24.504Z,101061.16
2023-02-18T20:15:51.210Z,101058.34
2023-02-18T20:18:17.923Z,101072.19
2023-02-18T20:20:51.318Z,101077.06
2023-02-18T20:23:18.170Z,101072.88
2023-02-18T20:25:47.692Z,101068.38
2023-02-18T20:28:17.577Z,101074.56
2023-02-18T20:30:44.531Z,101068.16
2023-02-18T20:33:11.246Z,101062.09
2023-02-18T20:35:38.071Z,101064.91
2023-02-18T20:38:04.743Z,101073.41
2023-02-18T20:40:31.400Z,101075.34
2023-02-18T20:42:58.099Z,101078.19
2023-02-18T20:45:25.941Z,101080.69
2023-02-18T20:47:55.704Z,101083.50
2023-02-18T20:50:22.497Z,101085.41
2023-02-18T20:52:49.156Z,101093.78
2023-02-18T20:55:15.902Z,101101.25
2023-02-18T20:57:42.591Z,101093.13
2023-02-18T21:00:09.947Z,101087.03
2023-02-18T21:02:39.733Z,101096.81
2023-02-18T21:05:06.446Z,101099.53
2023-02-18T21:07:33.137Z,101092.34
2023-02-18T21:09:59.863Z,101095.28
2023-02-18T21:12:26.564Z,101101.63
2023-02-18T21:14:53.243Z,101102.50
2023-02-18T21:17:19.951Z,101110.81
2023-02-18T21:19:46.613Z,101103.50
2023-02-18T21:22:13.377Z,101106.66
2023-02-18T21:24:43.723Z,101109.94
2023-02-18T21:27:10.936Z,101118.13
2023-02-18T21:29:37.600Z,101110.28
2023-02-18T21:32:04.494Z,101108.03
2023-02-18T21:34:31.167Z,101115.16
2023-02-18T21:36:57.885Z,101115.28
2023-02-18T21:39:24.563Z,101116.22
2023-02-18T21:41:51.224Z,101123.13
2023-02-18T21:44:18.012Z,101122.06
2023-02-18T21:46:44.728Z,101119.59
2023-02-18T21:49:12.663Z,101123.94
2023-02-18T21:52:08.651Z,101114.16
2023-02-18T21:54:44.744Z,101117.91
2023-02-18T21:57:17.542Z,101114.31
2023-02-18T21:59:45.474Z,101125.09
2023-02-18T22:02:17.119Z,101120.47
2023-02-18T22:04:44.065Z,101112.50
2023-02-18T22:07:10.754Z,101115.41
2023-02-18T22:09:37.580Z,101117.13
2023-02-18T22:12:05.102Z,101120.56
2023-02-18T22:14:31.912Z,101129.19
2023-02-18T22:16:58.880Z,101131.78
2023-02-18T22:19:26.009Z,101133.78
2023-02-18T22:21:52.760Z,101143.50
2023-02-18T22:24:19.482Z,101143.28
2023-02-18T22:26:49.120Z,101129.16
2023-02-18T22:29:18.241Z,101137.94
2023-02-18T22:31:45.041Z,101139.81
2023-02-18T22:34:11.840Z,101151.25
2023-02-18T22:36:39.350Z,101143.25
2023-02-18T22:39:06.333Z,101154.88
2023-02-18T22:41:36.785Z,101150.41
2023-02-18T22:44:05.920Z,101144.22
2023-02-18T22:46:36.116Z,101137.09
2023-02-18T22:49:04.665Z,101131.72
2023-02-18T22:51:52.189Z,101126.47
2023-02-18T22:54:19.673Z,101122.78
2023-02-18T22:56:47.203Z,101130.72
2023-02-18T22:59:15.576Z,101136.19
2023-02-18T23:01:44.785Z,101133.47
2023-02-18T23:04:13.305Z,101132.50
2023-02-18T23:06:41.984Z,101137.88
2023-02-18T23:09:11.837Z,101139.69
2023-02-18T23:11:41.503Z,101132.00
2023-02-18T23:14:21.466Z,101136.28
2023-02-18T23:17:15.169Z,101123.88
2023-02-18T23:19:48.880Z,101126.41
2023-02-18T23:22:18.230Z,101127.38
2023-02-18T23:24:45.959Z,101129.16
2023-02-18T23:27:15.215Z,101132.69
2023-02-18T23:29:42.278Z,101138.00
2023-02-18T23:32:09.768Z,101133.66
2023-02-18T23:34:37.798Z,101138.06
2023-02-18T23:37:04.650Z,101126.66
2023-02-18T23:39:31.336Z,101131.09
2023-02-18T23:41:58.065Z,101124.06
2023-02-18T23:44:26.232Z,101120.47
2023-02-18T23:46:53.292Z,101121.31
2023-02-18T23:49:22.345Z,101117.81
2023-02-18T23:51:50.307Z,101119.63
2023-02-18T23:54:17.108Z,101124.91
2023-02-18T23:56:44.911Z,101121.41
2023-02-18T23:59:12.334Z,101125.84
